sensor_id;sensor_type;location;lat;lon;timestamp;temperature;humidity
74376;HTU21D;62812;55.188;61.302;2023-05-07T00:00:56;15.30;39.54
74376;HTU21D;62812;55.188;61.302;2023-05-07T00:03:23;15.24;39.92
74376;HTU21D;62812;55.188;61.302;2023-05-07T00:05:50;15.19;39.88
74376;HTU21D;62812;55.188;61.302;2023-05-07T00:08:20;15.16;40.15
74376;HTU21D;62812;55.188;61.302;2023-05-07T00:10:47;15.25;38.72
74376;HTU21D;62812;55.188;61.302;2023-05-07T00:13:14;15.33;35.81
74376;HTU21D;62812;55.188;61.302;2023-05-07T00:15:41;15.43;37.69
74376;HTU21D;62812;55.188;61.302;2023-05-07T00:18:08;15.48;35.89
74376;HTU21D;62812;55.188;61.302;2023-05-07T00:20:35;15.47;39.19
74376;HTU21D;62812;55.188;61.302;2023-05-07T00:23:03;15.47;38.58
74376;HTU21D;62812;55.188;61.302;2023-05-07T00:25:31;15.44;38.49
74376;HTU21D;62812;55.188;61.302;2023-05-07T00:27:58;15.37;37.24
74376;HTU21D;62812;55.188;61.302;2023-05-07T00:30:29;15.34;38.95
74376;HTU21D;62812;55.188;61.302;2023-05-07T00:32:56;15.31;37.95
74376;HTU21D;62812;55.188;61.302;2023-05-07T00:35:23;15.24;38.82
74376;HTU21D;62812;55.188;61.302;2023-05-07T00:37:51;15.21;38.46
74376;HTU21D;62812;55.188;61.302;2023-05-07T00:40:18;15.15;38.90
74376;HTU21D;62812;55.188;61.302;2023-05-07T00:42:46;15.13;39.16
74376;HTU21D;62812;55.188;61.302;2023-05-07T00:45:14;15.10;38.85
74376;HTU21D;62812;55.188;61.302;2023-05-07T00:47:42;15.10;38.79
74376;HTU21D;62812;55.188;61.302;2023-05-07T00:50:10;15.10;38.82
74376;HTU21D;62812;55.188;61.302;2023-05-07T00:52:39;15.13;38.51
74376;HTU21D;62812;55.188;61.302;2023-05-07T00:55:08;15.19;38.71
74376;HTU21D;62812;55.188;61.302;2023-05-07T00:57:36;15.19;38.46
74376;HTU21D;62812;55.188;61.302;2023-05-07T01:00:06;15.23;37.59
74376;HTU21D;62812;55.188;61.302;2023-05-07T01:02:35;15.19;38.75
74376;HTU21D;62812;55.188;61.302;2023-05-07T01:05:04;15.21;37.73
74376;HTU21D;62812;55.188;61.302;2023-05-07T01:07:32;15.26;37.57
74376;HTU21D;62812;55.188;61.302;2023-05-07T01:10:01;15.36;38.48
74376;HTU21D;62812;55.188;61.302;2023-05-07T01:12:29;15.39;38.08
74376;HTU21D;62812;55.188;61.302;2023-05-07T01:14:56;15.51;37.28
74376;HTU21D;62812;55.188;61.302;2023-05-07T01:17:25;15.73;35.60
74376;HTU21D;62812;55.188;61.302;2023-05-07T01:19:52;15.84;36.93
74376;HTU21D;62812;55.188;61.302;2023-05-07T01:22:28;15.98;37.17
74376;HTU21D;62812;55.188;61.302;2023-05-07T01:24:57;16.26;35.99
74376;HTU21D;62812;55.188;61.302;2023-05-07T01:27:25;16.44;35.39
74376;HTU21D;62812;55.188;61.302;2023-05-07T01:29:52;16.50;34.82
74376;HTU21D;62812;55.188;61.302;2023-05-07T01:32:23;16.64;34.47
74376;HTU21D;62812;55.188;61.302;2023-05-07T01:34:53;16.82;34.62
74376;HTU21D;62812;55.188;61.302;2023-05-07T01:37:22;16.88;34.37
74376;HTU21D;62812;55.188;61.302;2023-05-07T01:39:50;16.92;35.08
74376;HTU21D;62812;55.188;61.302;2023-05-07T01:42:18;17.06;34.49
74376;HTU21D;62812;55.188;61.302;2023-05-07T01:44:46;17.18;34.94
74376;HTU21D;62812;55.188;61.302;2023-05-07T01:47:13;17.29;34.43
74376;HTU21D;62812;55.188;61.302;2023-05-07T01:49:40;17.24;34.82
74376;HTU21D;62812;55.188;61.302;2023-05-07T01:52:09;17.26;33.83
74376;HTU21D;62812;55.188;61.302;2023-05-07T01:54:36;17.34;33.77
74376;HTU21D;62812;55.188;61.302;2023-05-07T01:57:04;17.51;33.41
74376;HTU21D;62812;55.188;61.302;2023-05-07T01:59:32;17.66;33.36
74376;HTU21D;62812;55.188;61.302;2023-05-07T02:01:58;17.83;32.89
74376;HTU21D;62812;55.188;61.302;2023-05-07T02:04:25;18.11;31.89
74376;HTU21D;62812;55.188;61.302;2023-05-07T02:06:52;18.26;31.04
74376;HTU21D;62812;55.188;61.302;2023-05-07T02:09:19;18.44;31.06
74376;HTU21D;62812;55.188;61.302;2023-05-07T02:11:46;18.48;31.25
74376;HTU21D;62812;55.188;61.302;2023-05-07T02:14:14;18.57;31.29
74376;HTU21D;62812;55.188;61.302;2023-05-07T02:16:41;18.55;31.49
74376;HTU21D;62812;55.188;61.302;2023-05-07T02:19:08;18.55;32.40
74376;HTU21D;62812;55.188;61.302;2023-05-07T02:21:35;18.50;31.97
74376;HTU21D;62812;55.188;61.302;2023-05-07T02:24:03;18.46;32.60
74376;HTU21D;62812;55.188;61.302;2023-05-07T02:26:30;18.49;33.12
74376;HTU21D;62812;55.188;61.302;2023-05-07T02:28:57;18.61;32.93
74376;HTU21D;62812;55.188;61.302;2023-05-07T02:31:28;18.61;33.01
74376;HTU21D;62812;55.188;61.302;2023-05-07T02:33:54;18.78;32.38
74376;HTU21D;62812;55.188;61.302;2023-05-07T02:36:21;18.94;32.29
74376;HTU21D;62812;55.188;61.302;2023-05-07T02:38:48;19.11;32.48
74376;HTU21D;62812;55.188;61.302;2023-05-07T02:41:15;19.31;31.89
74376;HTU21D;62812;55.188;61.302;2023-05-07T02:43:42;19.54;31.08
74376;HTU21D;62812;55.188;61.302;2023-05-07T02:46:09;19.71;30.03
74376;HTU21D;62812;55.188;61.302;2023-05-07T02:48:38;19.92;29.22
74376;HTU21D;62812;55.188;61.302;2023-05-07T02:51:05;20.02;29.29
74376;HTU21D;62812;55.188;61.302;2023-05-07T02:53:32;20.19;29.07
74376;HTU21D;62812;55.188;61.302;2023-05-07T02:56:00;20.18;28.93
74376;HTU21D;62812;55.188;61.302;2023-05-07T02:58:27;20.24;28.89
74376;HTU21D;62812;55.188;61.302;2023-05-07T03:00:55;20.13;29.91
74376;HTU21D;62812;55.188;61.302;2023-05-07T03:03:22;20.13;29.41
74376;HTU21D;62812;55.188;61.302;2023-05-07T03:05:51;20.26;29.15
74376;HTU21D;62812;55.188;61.302;2023-05-07T03:08:18;20.25;29.39
74376;HTU21D;62812;55.188;61.302;2023-05-07T03:10:46;20.22;29.49
74376;HTU21D;62812;55.188;61.302;2023-05-07T03:13:13;20.20;29.77
74376;HTU21D;62812;55.188;61.302;2023-05-07T03:15:40;20.12;29.51
74376;HTU21D;62812;55.188;61.302;2023-05-07T03:18:07;20.20;29.04
74376;HTU21D;62812;55.188;61.302;2023-05-07T03:20:34;20.26;28.92
74376;HTU21D;62812;55.188;61.302;2023-05-07T03:23:04;20.25;29.33
74376;HTU21D;62812;55.188;61.302;2023-05-07T03:25:32;20.48;28.53
74376;HTU21D;62812;55.188;61.302;2023-05-07T03:28:00;20.49;28.86
74376;HTU21D;62812;55.188;61.302;2023-05-07T03:30:27;20.42;28.93
74376;HTU21D;62812;55.188;61.302;2023-05-07T03:32:54;20.46;28.45
74376;HTU21D;62812;55.188;61.302;2023-05-07T03:35:22;20.54;29.19
74376;HTU21D;62812;55.188;61.302;2023-05-07T03:37:49;20.57;28.07
74376;HTU21D;62812;55.188;61.302;2023-05-07T03:40:18;20.47;28.68
74376;HTU21D;62812;55.188;61.302;2023-05-07T03:42:45;20.50;28.93
74376;HTU21D;62812;55.188;61.302;2023-05-07T03:45:12;20.56;28.31
74376;HTU21D;62812;55.188;61.302;2023-05-07T03:47:39;20.55;28.60
74376;HTU21D;62812;55.188;61.302;2023-05-07T03:50:06;20.64;28.42
74376;HTU21D;62812;55.188;61.302;2023-05-07T03:52:33;20.84;28.58
74376;HTU21D;62812;55.188;61.302;2023-05-07T03:55:00;20.94;28.29
74376;HTU21D;62812;55.188;61.302;2023-05-07T03:57:29;21.08;27.98
74376;HTU21D;62812;55.188;61.302;2023-05-07T03:59:56;21.22;28.64
74376;HTU21D;62812;55.188;61.302;2023-05-07T04:02:23;21.43;27.56
74376;HTU21D;62812;55.188;61.302;2023-05-07T04:04:50;21.50;27.19
74376;HTU21D;62812;55.188;61.302;2023-05-07T04:07:17;21.61;26.85
74376;HTU21D;62812;55.188;61.302;2023-05-07T04:09:44;21.66;26.90
74376;HTU21D;62812;55.188;61.302;2023-05-07T04:12:11;21.78;27.53
74376;HTU21D;62812;55.188;61.302;2023-05-07T04:14:39;21.97;26.69
74376;HTU21D;62812;55.188;61.302;2023-05-07T04:17:06;22.03;27.32
74376;HTU21D;62812;55.188;61.302;2023-05-07T04:19:36;22.16;26.60
74376;HTU21D;62812;55.188;61.302;2023-05-07T04:22:03;22.22;26.88
74376;HTU21D;62812;55.188;61.302;2023-05-07T04:24:31;22.34;26.58
74376;HTU21D;62812;55.188;61.302;2023-05-07T04:26:59;22.50;26.77
74376;HTU21D;62812;55.188;61.302;2023-05-07T04:29:28;22.49;26.46
74376;HTU21D;62812;55.188;61.302;2023-05-07T04:31:57;22.41;26.53
74376;HTU21D;62812;55.188;61.302;2023-05-07T04:34:25;22.40;27.37
74376;HTU21D;62812;55.188;61.302;2023-05-07T04:36:52;22.48;27.10
74376;HTU21D;62812;55.188;61.302;2023-05-07T04:39:19;22.58;27.04
74376;HTU21D;62812;55.188;61.302;2023-05-07T04:41:46;22.72;27.19
74376;HTU21D;62812;55.188;61.302;2023-05-07T04:44:14;22.97;26.20
74376;HTU21D;62812;55.188;61.302;2023-05-07T04:46:42;23.21;25.65
74376;HTU21D;62812;55.188;61.302;2023-05-07T04:49:12;23.39;26.00
74376;HTU21D;62812;55.188;61.302;2023-05-07T04:51:39;23.58;25.20
74376;HTU21D;62812;55.188;61.302;2023-05-07T04:54:09;23.76;25.29
74376;HTU21D;62812;55.188;61.302;2023-05-07T04:56:36;24.03;23.55
74376;HTU21D;62812;55.188;61.302;2023-05-07T04:59:05;24.23;23.53
74376;HTU21D;62812;55.188;61.302;2023-05-07T05:01:33;24.31;24.01
74376;HTU21D;62812;55.188;61.302;2023-05-07T05:04:00;24.59;23.25
74376;HTU21D;62812;55.188;61.302;2023-05-07T05:06:32;24.75;23.52
74376;HTU21D;62812;55.188;61.302;2023-05-07T05:09:02;24.91;22.65
74376;HTU21D;62812;55.188;61.302;2023-05-07T05:11:31;24.97;22.35
74376;HTU21D;62812;55.188;61.302;2023-05-07T05:13:59;24.99;21.62
74376;HTU21D;62812;55.188;61.302;2023-05-07T05:16:27;24.98;22.92
74376;HTU21D;62812;55.188;61.302;2023-05-07T05:18:54;24.99;22.24
74376;HTU21D;62812;55.188;61.302;2023-05-07T05:21:25;25.10;23.32
74376;HTU21D;62812;55.188;61.302;2023-05-07T05:23:56;25.19;22.50
74376;HTU21D;62812;55.188;61.302;2023-05-07T05:26:24;25.42;22.14
74376;HTU21D;62812;55.188;61.302;2023-05-07T05:28:56;25.69;21.53
74376;HTU21D;62812;55.188;61.302;2023-05-07T05:31:28;25.88;20.09
74376;HTU21D;62812;55.188;61.302;2023-05-07T05:33:56;25.82;19.27
74376;HTU21D;62812;55.188;61.302;2023-05-07T05:36:26;25.78;19.76
74376;HTU21D;62812;55.188;61.302;2023-05-07T05:38:55;25.94;19.82
74376;HTU21D;62812;55.188;61.302;2023-05-07T05:41:41;25.86;19.59
74376;HTU21D;62812;55.188;61.302;2023-05-07T05:44:35;25.99;20.18
74376;HTU21D;62812;55.188;61.302;2023-05-07T05:47:03;26.06;20.12
74376;HTU21D;62812;55.188;61.302;2023-05-07T05:49:31;25.97;20.08
74376;HTU21D;62812;55.188;61.302;2023-05-07T05:52:00;26.02;18.93
74376;HTU21D;62812;55.188;61.302;2023-05-07T05:54:28;25.99;20.06
74376;HTU21D;62812;55.188;61.302;2023-05-07T05:56:55;26.18;20.59
74376;HTU21D;62812;55.188;61.302;2023-05-07T05:59:23;26.20;19.86
74376;HTU21D;62812;55.188;61.302;2023-05-07T06:02:15;26.13;19.09
74376;HTU21D;62812;55.188;61.302;2023-05-07T06:04:42;26.20;18.02
74376;HTU21D;62812;55.188;61.302;2023-05-07T06:07:10;26.16;19.34
74376;HTU21D;62812;55.188;61.302;2023-05-07T06:09:40;26.34;20.38
74376;HTU21D;62812;55.188;61.302;2023-05-07T06:12:07;26.45;17.79
74376;HTU21D;62812;55.188;61.302;2023-05-07T06:14:34;26.51;18.32
74376;HTU21D;62812;55.188;61.302;2023-05-07T06:17:01;26.52;18.68
74376;HTU21D;62812;55.188;61.302;2023-05-07T06:19:28;26.65;17.57
74376;HTU21D;62812;55.188;61.302;2023-05-07T06:21:55;26.66;18.13
74376;HTU21D;62812;55.188;61.302;2023-05-07T06:24:23;26.66;19.32
74376;HTU21D;62812;55.188;61.302;2023-05-07T06:26:53;26.77;18.28
74376;HTU21D;62812;55.188;61.302;2023-05-07T06:29:21;26.71;17.45
74376;HTU21D;62812;55.188;61.302;2023-05-07T06:31:57;26.56;16.66
74376;HTU21D;62812;55.188;61.302;2023-05-07T06:34:36;26.53;16.94
74376;HTU21D;62812;55.188;61.302;2023-05-07T06:37:03;26.55;17.35
74376;HTU21D;62812;55.188;61.302;2023-05-07T06:39:30;26.61;17.05
74376;HTU21D;62812;55.188;61.302;2023-05-07T06:42:00;26.80;20.09
74376;HTU21D;62812;55.188;61.302;2023-05-07T06:44:28;26.90;16.78
74376;HTU21D;62812;55.188;61.302;2023-05-07T06:46:57;26.79;16.38
74376;HTU21D;62812;55.188;61.302;2023-05-07T06:49:36;26.78;16.72
74376;HTU21D;62812;55.188;61.302;2023-05-07T06:52:08;26.70;18.19
74376;HTU21D;62812;55.188;61.302;2023-05-07T06:54:39;26.80;16.92
74376;HTU21D;62812;55.188;61.302;2023-05-07T06:57:11;26.85;20.57
74376;HTU21D;62812;55.188;61.302;2023-05-07T06:59:53;27.02;17.26
74376;HTU21D;62812;55.188;61.302;2023-05-07T07:02:24;27.23;18.46
74376;HTU21D;62812;55.188;61.302;2023-05-07T07:05:01;27.30;17.35
74376;HTU21D;62812;55.188;61.302;2023-05-07T07:07:29;27.29;18.57
74376;HTU21D;62812;55.188;61.302;2023-05-07T07:09:57;27.26;19.51
74376;HTU21D;62812;55.188;61.302;2023-05-07T07:12:31;27.41;18.38
74376;HTU21D;62812;55.188;61.302;2023-05-07T07:15:08;27.46;18.20
74376;HTU21D;62812;55.188;61.302;2023-05-07T07:17:43;27.43;18.65
74376;HTU21D;62812;55.188;61.302;2023-05-07T07:20:21;27.46;16.14
74376;HTU21D;62812;55.188;61.302;2023-05-07T07:22:50;27.43;15.68
74376;HTU21D;62812;55.188;61.302;2023-05-07T07:25:17;27.37;15.43
74376;HTU21D;62812;55.188;61.302;2023-05-07T07:27:49;27.40;17.93
74376;HTU21D;62812;55.188;61.302;2023-05-07T07:30:18;27.34;15.77
74376;HTU21D;62812;55.188;61.302;2023-05-07T07:32:46;27.34;15.73
74376;HTU21D;62812;55.188;61.302;2023-05-07T07:35:13;27.34;16.88
74376;HTU21D;62812;55.188;61.302;2023-05-07T07:37:41;27.25;15.23
74376;HTU21D;62812;55.188;61.302;2023-05-07T07:40:10;27.19;16.93
74376;HTU21D;62812;55.188;61.302;2023-05-07T07:42:40;27.19;16.36
74376;HTU21D;62812;55.188;61.302;2023-05-07T07:45:12;27.23;15.26
74376;HTU21D;62812;55.188;61.302;2023-05-07T07:47:40;27.25;16.42
74376;HTU21D;62812;55.188;61.302;2023-05-07T07:50:09;27.26;14.59
74376;HTU21D;62812;55.188;61.302;2023-05-07T07:52:40;27.20;15.03
74376;HTU21D;62812;55.188;61.302;2023-05-07T07:55:12;27.17;16.13
74376;HTU21D;62812;55.188;61.302;2023-05-07T07:57:39;27.25;16.32
74376;HTU21D;62812;55.188;61.302;2023-05-07T08:00:10;27.26;13.18
74376;HTU21D;62812;55.188;61.302;2023-05-07T08:02:43;27.17;15.37
74376;HTU21D;62812;55.188;61.302;2023-05-07T08:05:13;27.12;14.39
74376;HTU21D;62812;55.188;61.302;2023-05-07T08:07:40;27.11;13.97
74376;HTU21D;62812;55.188;61.302;2023-05-07T08:10:08;27.05;15.75
74376;HTU21D;62812;55.188;61.302;2023-05-07T08:12:38;27.04;15.09
74376;HTU21D;62812;55.188;61.302;2023-05-07T08:15:08;27.08;15.27
74376;HTU21D;62812;55.188;61.302;2023-05-07T08:17:36;27.01;13.13
74376;HTU21D;62812;55.188;61.302;2023-05-07T08:20:06;27.02;14.30
74376;HTU21D;62812;55.188;61.302;2023-05-07T08:22:34;27.05;14.17
74376;HTU21D;62812;55.188;61.302;2023-05-07T08:25:04;27.13;12.46
74376;HTU21D;62812;55.188;61.302;2023-05-07T08:27:36;27.04;12.36
74376;HTU21D;62812;55.188;61.302;2023-05-07T08:30:11;27.02;14.84
74376;HTU21D;62812;55.188;61.302;2023-05-07T08:32:38;27.07;13.23
74376;HTU21D;62812;55.188;61.302;2023-05-07T08:35:09;27.02;14.74
74376;HTU21D;62812;55.188;61.302;2023-05-07T08:37:45;27.01;13.68
74376;HTU21D;62812;55.188;61.302;2023-05-07T08:40:15;27.06;14.81
74376;HTU21D;62812;55.188;61.302;2023-05-07T08:42:48;27.10;14.90
74376;HTU21D;62812;55.188;61.302;2023-05-07T08:45:19;27.04;13.55
74376;HTU21D;62812;55.188;61.302;2023-05-07T08:47:50;26.90;12.33
74376;HTU21D;62812;55.188;61.302;2023-05-07T08:50:20;26.92;13.13
74376;HTU21D;62812;55.188;61.302;2023-05-07T08:52:49;26.87;14.22
74376;HTU21D;62812;55.188;61.302;2023-05-07T08:55:18;26.95;14.27
74376;HTU21D;62812;55.188;61.302;2023-05-07T08:57:51;26.98;12.11
74376;HTU21D;62812;55.188;61.302;2023-05-07T09:00:19;26.90;13.26
74376;HTU21D;62812;55.188;61.302;2023-05-07T09:02:50;26.89;14.33
74376;HTU21D;62812;55.188;61.302;2023-05-07T09:05:17;26.93;14.29
74376;HTU21D;62812;55.188;61.302;2023-05-07T09:07:48;26.93;14.25
74376;HTU21D;62812;55.188;61.302;2023-05-07T09:10:15;26.98;11.95
74376;HTU21D;62812;55.188;61.302;2023-05-07T09:12:43;27.00;12.68
74376;HTU21D;62812;55.188;61.302;2023-05-07T09:15:16;27.04;12.02
74376;HTU21D;62812;55.188;61.302;2023-05-07T09:17:45;27.00;11.57
74376;HTU21D;62812;55.188;61.302;2023-05-07T09:20:13;27.04;14.13
74376;HTU21D;62812;55.188;61.302;2023-05-07T09:22:40;27.10;11.64
74376;HTU21D;62812;55.188;61.302;2023-05-07T09:25:10;27.08;14.00
74376;HTU21D;62812;55.188;61.302;2023-05-07T09:27:38;27.10;14.24
74376;HTU21D;62812;55.188;61.302;2023-05-07T09:30:06;27.16;14.06
74376;HTU21D;62812;55.188;61.302;2023-05-07T09:32:36;27.16;11.86
74376;HTU21D;62812;55.188;61.302;2023-05-07T09:35:05;27.12;12.88
74376;HTU21D;62812;55.188;61.302;2023-05-07T09:37:33;27.08;11.27
74376;HTU21D;62812;55.188;61.302;2023-05-07T09:40:01;27.11;12.45
74376;HTU21D;62812;55.188;61.302;2023-05-07T09:42:30;27.11;11.85
74376;HTU21D;62812;55.188;61.302;2023-05-07T09:44:59;27.08;13.57
74376;HTU21D;62812;55.188;61.302;2023-05-07T09:47:32;27.13;14.23
74376;HTU21D;62812;55.188;61.302;2023-05-07T09:50:00;27.19;12.32
74376;HTU21D;62812;55.188;61.302;2023-05-07T09:52:28;27.19;13.47
74376;HTU21D;62812;55.188;61.302;2023-05-07T09:55:00;27.27;13.79
74376;HTU21D;62812;55.188;61.302;2023-05-07T09:57:30;27.29;14.07
74376;HTU21D;62812;55.188;61.302;2023-05-07T09:59:58;27.24;13.68
74376;HTU21D;62812;55.188;61.302;2023-05-07T10:02:28;27.25;12.12
74376;HTU21D;62812;55.188;61.302;2023-05-07T10:04:56;27.17;14.00
74376;HTU21D;62812;55.188;61.302;2023-05-07T10:07:25;27.19;14.58
74376;HTU21D;62812;55.188;61.302;2023-05-07T10:09:53;27.09;13.01
74376;HTU21D;62812;55.188;61.302;2023-05-07T10:12:21;27.15;14.97
74376;HTU21D;62812;55.188;61.302;2023-05-07T10:14:50;27.12;14.35
74376;HTU21D;62812;55.188;61.302;2023-05-07T10:17:19;27.14;14.34
74376;HTU21D;62812;55.188;61.302;2023-05-07T10:19:47;27.21;14.29
74376;HTU21D;62812;55.188;61.302;2023-05-07T10:22:14;27.22;11.60
74376;HTU21D;62812;55.188;61.302;2023-05-07T10:24:42;27.25;13.58
74376;HTU21D;62812;55.188;61.302;2023-05-07T10:27:13;27.31;14.20
74376;HTU21D;62812;55.188;61.302;2023-05-07T10:29:48;27.36;13.82
74376;HTU21D;62812;55.188;61.302;2023-05-07T10:32:33;27.32;11.86
74376;HTU21D;62812;55.188;61.302;2023-05-07T10:35:06;27.29;12.68
74376;HTU21D;62812;55.188;61.302;2023-05-07T10:37:36;27.01;15.32
74376;HTU21D;62812;55.188;61.302;2023-05-07T10:40:04;26.62;19.83
74376;HTU21D;62812;55.188;61.302;2023-05-07T10:42:33;26.08;22.86
74376;HTU21D;62812;55.188;61.302;2023-05-07T10:45:12;25.79;24.72
74376;HTU21D;62812;55.188;61.302;2023-05-07T10:48:09;25.38;26.23
74376;HTU21D;62812;55.188;61.302;2023-05-07T10:50:37;24.97;27.97
74376;HTU21D;62812;55.188;61.302;2023-05-07T10:53:25;24.70;29.07
74376;HTU21D;62812;55.188;61.302;2023-05-07T10:56:24;24.27;30.25
74376;HTU21D;62812;55.188;61.302;2023-05-07T10:58:52;23.66;30.11
74376;HTU21D;62812;55.188;61.302;2023-05-07T11:01:49;23.27;32.03
74376;HTU21D;62812;55.188;61.302;2023-05-07T11:04:19;22.90;32.70
74376;HTU21D;62812;55.188;61.302;2023-05-07T11:10:06;22.31;33.67
74376;HTU21D;62812;55.188;61.302;2023-05-07T11:12:55;21.91;34.31
74376;HTU21D;62812;55.188;61.302;2023-05-07T11:15:37;21.82;33.38
74376;HTU21D;62812;55.188;61.302;2023-05-07T11:18:06;21.60;33.57
74376;HTU21D;62812;55.188;61.302;2023-05-07T11:23:58;21.21;34.19
74376;HTU21D;62812;55.188;61.302;2023-05-07T11:26:27;21.08;34.00
74376;HTU21D;62812;55.188;61.302;2023-05-07T11:28:54;20.88;35.30
74376;HTU21D;62812;55.188;61.302;2023-05-07T11:31:24;20.68;35.34
74376;HTU21D;62812;55.188;61.302;2023-05-07T11:33:54;20.54;35.09
74376;HTU21D;62812;55.188;61.302;2023-05-07T11:36:24;20.53;34.94
74376;HTU21D;62812;55.188;61.302;2023-05-07T11:38:53;20.18;35.41
74376;HTU21D;62812;55.188;61.302;2023-05-07T11:41:22;20.06;35.85
74376;HTU21D;62812;55.188;61.302;2023-05-07T11:44:19;19.95;35.79
74376;HTU21D;62812;55.188;61.302;2023-05-07T11:46:49;19.84;35.89
74376;HTU21D;62812;55.188;61.302;2023-05-07T11:49:17;19.84;35.81
74376;HTU21D;62812;55.188;61.302;2023-05-07T11:51:46;19.90;35.20
74376;HTU21D;62812;55.188;61.302;2023-05-07T11:54:17;20.05;34.43
74376;HTU21D;62812;55.188;61.302;2023-05-07T11:56:44;20.09;34.18
74376;HTU21D;62812;55.188;61.302;2023-05-07T11:59:16;19.96;34.83
74376;HTU21D;62812;55.188;61.302;2023-05-07T12:01:45;19.72;34.71
74376;HTU21D;62812;55.188;61.302;2023-05-07T12:04:18;19.74;34.15
74376;HTU21D;62812;55.188;61.302;2023-05-07T12:06:48;19.47;34.84
74376;HTU21D;62812;55.188;61.302;2023-05-07T12:09:17;19.41;34.47
74376;HTU21D;62812;55.188;61.302;2023-05-07T12:11:46;19.35;34.86
74376;HTU21D;62812;55.188;61.302;2023-05-07T12:14:14;19.38;34.52
74376;HTU21D;62812;55.188;61.302;2023-05-07T12:16:42;19.25;34.41
74376;HTU21D;62812;55.188;61.302;2023-05-07T12:19:11;19.21;34.23
74376;HTU21D;62812;55.188;61.302;2023-05-07T12:21:40;19.12;34.35
74376;HTU21D;62812;55.188;61.302;2023-05-07T12:24:09;18.96;34.70
74376;HTU21D;62812;55.188;61.302;2023-05-07T12:26:38;18.86;34.28
74376;HTU21D;62812;55.188;61.302;2023-05-07T12:29:07;18.72;34.82
74376;HTU21D;62812;55.188;61.302;2023-05-07T12:31:40;18.79;34.22
74376;HTU21D;62812;55.188;61.302;2023-05-07T12:34:10;18.76;34.57
74376;HTU21D;62812;55.188;61.302;2023-05-07T12:36:42;18.66;34.34
74376;HTU21D;62812;55.188;61.302;2023-05-07T12:39:11;18.40;35.15
74376;HTU21D;62812;55.188;61.302;2023-05-07T12:41:53;18.24;35.12
74376;HTU21D;62812;55.188;61.302;2023-05-07T12:44:23;18.08;35.31
74376;HTU21D;62812;55.188;61.302;2023-05-07T12:46:52;17.94;35.69
74376;HTU21D;62812;55.188;61.302;2023-05-07T12:49:19;17.99;35.42
74376;HTU21D;62812;55.188;61.302;2023-05-07T12:51:52;17.87;36.21
74376;HTU21D;62812;55.188;61.302;2023-05-07T12:54:31;17.82;36.16
74376;HTU21D;62812;55.188;61.302;2023-05-07T12:57:02;17.66;36.21
74376;HTU21D;62812;55.188;61.302;2023-05-07T12:59:34;17.54;36.99
74376;HTU21D;62812;55.188;61.302;2023-05-07T13:02:04;17.72;36.76
74376;HTU21D;62812;55.188;61.302;2023-05-07T13:04:37;17.65;36.72
74376;HTU21D;62812;55.188;61.302;2023-05-07T13:07:06;17.56;37.11
74376;HTU21D;62812;55.188;61.302;2023-05-07T13:09:38;17.48;36.91
74376;HTU21D;62812;55.188;61.302;2023-05-07T13:12:09;17.22;37.91
74376;HTU21D;62812;55.188;61.302;2023-05-07T13:14:39;17.14;37.58
74376;HTU21D;62812;55.188;61.302;2023-05-07T13:17:10;17.20;37.95
74376;HTU21D;62812;55.188;61.302;2023-05-07T13:19:54;17.24;37.51
74376;HTU21D;62812;55.188;61.302;2023-05-07T13:22:21;17.08;38.35
74376;HTU21D;62812;55.188;61.302;2023-05-07T13:24:50;17.04;38.73
74376;HTU21D;62812;55.188;61.302;2023-05-07T13:27:27;17.16;37.73
74376;HTU21D;62812;55.188;61.302;2023-05-07T13:29:54;16.94;38.33
74376;HTU21D;62812;55.188;61.302;2023-05-07T13:32:21;16.62;38.99
74376;HTU21D;62812;55.188;61.302;2023-05-07T13:34:49;16.29;40.26
74376;HTU21D;62812;55.188;61.302;2023-05-07T13:37:16;15.98;40.20
74376;HTU21D;62812;55.188;61.302;2023-05-07T13:39:44;15.78;40.81
74376;HTU21D;62812;55.188;61.302;2023-05-07T13:42:16;15.43;41.91
74376;HTU21D;62812;55.188;61.302;2023-05-07T13:44:47;15.52;41.47
74376;HTU21D;62812;55.188;61.302;2023-05-07T13:47:14;15.41;41.78
74376;HTU21D;62812;55.188;61.302;2023-05-07T13:49:46;15.31;42.33
74376;HTU21D;62812;55.188;61.302;2023-05-07T13:52:17;15.42;41.79
74376;HTU21D;62812;55.188;61.302;2023-05-07T13:54:44;15.18;42.57
74376;HTU21D;62812;55.188;61.302;2023-05-07T13:57:13;15.10;42.94
74376;HTU21D;62812;55.188;61.302;2023-05-07T13:59:43;15.06;43.03
74376;HTU21D;62812;55.188;61.302;2023-05-07T14:02:11;14.95;43.32
74376;HTU21D;62812;55.188;61.302;2023-05-07T14:04:39;14.79;43.77
74376;HTU21D;62812;55.188;61.302;2023-05-07T14:07:12;14.68;44.00
74376;HTU21D;62812;55.188;61.302;2023-05-07T14:09:40;14.63;44.21
74376;HTU21D;62812;55.188;61.302;2023-05-07T14:12:08;14.40;45.19
74376;HTU21D;62812;55.188;61.302;2023-05-07T14:14:39;14.39;45.38
74376;HTU21D;62812;55.188;61.302;2023-05-07T14:17:12;14.22;46.47
74376;HTU21D;62812;55.188;61.302;2023-05-07T14:19:40;14.13;45.67
74376;HTU21D;62812;55.188;61.302;2023-05-07T14:22:08;13.77;46.54
74376;HTU21D;62812;55.188;61.302;2023-05-07T14:24:49;13.61;46.82
74376;HTU21D;62812;55.188;61.302;2023-05-07T14:27:16;13.76;46.88
74376;HTU21D;62812;55.188;61.302;2023-05-07T14:29:45;13.70;46.25
74376;HTU21D;62812;55.188;61.302;2023-05-07T14:32:19;13.52;46.66
74376;HTU21D;62812;55.188;61.302;2023-05-07T14:34:46;13.29;47.02
74376;HTU21D;62812;55.188;61.302;2023-05-07T14:37:16;13.22;46.93
74376;HTU21D;62812;55.188;61.302;2023-05-07T14:39:46;13.02;46.93
74376;HTU21D;62812;55.188;61.302;2023-05-07T14:42:14;13.19;45.96
74376;HTU21D;62812;55.188;61.302;2023-05-07T14:44:42;13.04;46.22
74376;HTU21D;62812;55.188;61.302;2023-05-07T14:47:13;12.90;46.33
74376;HTU21D;62812;55.188;61.302;2023-05-07T14:49:42;12.96;46.13
74376;HTU21D;62812;55.188;61.302;2023-05-07T14:52:14;12.85;46.04
74376;HTU21D;62812;55.188;61.302;2023-05-07T14:54:44;12.78;45.83
74376;HTU21D;62812;55.188;61.302;2023-05-07T14:57:13;12.77;47.31
74376;HTU21D;62812;55.188;61.302;2023-05-07T14:59:42;12.72;46.62
74376;HTU21D;62812;55.188;61.302;2023-05-07T15:02:18;12.96;45.65
74376;HTU21D;62812;55.188;61.302;2023-05-07T15:04:46;12.87;45.57
74376;HTU21D;62812;55.188;61.302;2023-05-07T15:07:15;12.52;46.61
74376;HTU21D;62812;55.188;61.302;2023-05-07T15:09:43;12.43;47.83
74376;HTU21D;62812;55.188;61.302;2023-05-07T15:12:11;12.59;46.72
74376;HTU21D;62812;55.188;61.302;2023-05-07T15:14:39;12.56;46.75
74376;HTU21D;62812;55.188;61.302;2023-05-07T15:17:09;12.64;45.64
74376;HTU21D;62812;55.188;61.302;2023-05-07T15:19:41;12.33;46.23
74376;HTU21D;62812;55.188;61.302;2023-05-07T15:22:09;12.30;46.63
74376;HTU21D;62812;55.188;61.302;2023-05-07T15:24:36;12.20;46.19